createdAt,value
2018-06-05T00:00:21.179Z,20.37
2018-06-05T00:02:50.275Z,21.03
2018-06-05T00:05:19.405Z,24.03
2018-06-05T00:07:48.512Z,22.67
2018-06-05T00:10:17.601Z,23.30
2018-06-05T00:12:46.741Z,23.73
2018-06-05T00:15:15.885Z,20.97
2018-06-05T00:17:45.001Z,20.77
2018-06-05T00:20:14.097Z,22.93
2018-06-05T00:22:43.200Z,21.43
2018-06-05T00:25:12.306Z,16.40
2018-06-05T00:27:41.439Z,16.77
2018-06-05T00:30:10.541Z,22.13
2018-06-05T00:32:39.661Z,23.10
2018-06-05T00:35:08.776Z,23.40
2018-06-05T00:37:37.882Z,22.67
2018-06-05T00:40:06.996Z,26.53
2018-06-05T00:42:36.118Z,19.90
2018-06-05T00:45:05.237Z,23.00
2018-06-05T00:47:34.349Z,25.33
2018-06-05T00:50:03.498Z,25.00
2018-06-05T00:52:32.600Z,24.27
2018-06-05T00:55:01.705Z,25.80
2018-06-05T00:57:30.797Z,26.37
2018-06-05T00:59:59.901Z,26.13
2018-06-05T01:02:29.021Z,23.67
2018-06-05T01:04:58.131Z,23.77
2018-06-05T01:07:27.245Z,24.20
2018-06-05T01:09:56.345Z,24.93
2018-06-05T01:12:25.459Z,26.07
2018-06-05T01:14:54.556Z,25.50
2018-06-05T01:17:23.680Z,22.67
2018-06-05T01:19:52.785Z,21.63
2018-06-05T01:22:21.873Z,21.53
2018-06-05T01:24:50.981Z,19.63
2018-06-05T01:27:20.377Z,17.63
2018-06-05T01:29:49.473Z,22.97
2018-06-05T01:32:18.557Z,23.90
2018-06-05T01:34:47.672Z,20.67
2018-06-05T01:37:16.773Z,22.00
2018-06-05T01:39:45.913Z,18.10
2018-06-05T01:42:15.009Z,18.03
2018-06-05T01:44:44.102Z,19.43
2018-06-05T01:47:13.223Z,16.53
2018-06-05T01:49:42.293Z,18.87
2018-06-05T01:52:11.394Z,22.23
2018-06-05T01:54:40.479Z,20.23
2018-06-05T01:57:09.573Z,22.67
2018-06-05T01:59:38.672Z,23.07
2018-06-05T02:02:07.842Z,27.63
2018-06-05T02:04:36.950Z,25.20
2018-06-05T02:07:06.151Z,21.03
2018-06-05T02:09:35.253Z,23.77
2018-06-05T02:12:04.349Z,24.27
2018-06-05T02:14:33.473Z,28.97
2018-06-05T02:17:02.561Z,30.17
2018-06-05T02:19:31.677Z,30.00
2018-06-05T02:22:00.856Z,29.53
2018-06-05T02:24:29.986Z,26.80
2018-06-05T02:26:59.362Z,29.20
2018-06-05T02:29:28.457Z,29.97
2018-06-05T02:31:57.557Z,33.97
2018-06-05T02:34:26.665Z,30.97
2018-06-05T02:36:55.759Z,31.33
2018-06-05T02:39:24.861Z,32.17
2018-06-05T02:41:54.013Z,34.83
2018-06-05T02:44:23.125Z,33.30
2018-06-05T02:46:52.238Z,32.27
2018-06-05T02:49:21.329Z,33.77
2018-06-05T02:51:50.470Z,28.67
2018-06-05T02:54:19.565Z,27.10
2018-06-05T02:56:48.690Z,30.70
2018-06-05T02:59:17.777Z,36.33
2018-06-05T03:01:46.886Z,29.73
2018-06-05T03:04:16.005Z,31.70
2018-06-05T03:06:45.105Z,33.17
2018-06-05T03:09:14.214Z,34.03
2018-06-05T03:11:43.313Z,37.83
2018-06-05T03:14:12.421Z,34.97
2018-06-05T03:16:41.529Z,37.63
2018-06-05T03:19:10.641Z,36.33
2018-06-05T03:21:39.749Z,35.57
2018-06-05T03:24:08.853Z,37.43
2018-06-05T03:26:37.951Z,35.50
2018-06-05T03:29:07.069Z,35.00
2018-06-05T03:31:36.179Z,35.10
2018-06-05T03:34:05.350Z,37.80
2018-06-05T03:36:34.385Z,38.10
2018-06-05T03:39:04.625Z,39.70
2018-06-05T03:41:33.734Z,40.63
2018-06-05T03:44:02.840Z,42.33
2018-06-05T03:46:31.964Z,37.33
2018-06-05T03:49:01.109Z,41.70
2018-06-05T03:51:30.209Z,41.37
2018-06-05T03:53:59.312Z,43.10
2018-06-05T03:56:28.453Z,36.93
2018-06-05T03:58:57.505Z,41.03
2018-06-05T04:01:26.605Z,41.37
2018-06-05T04:03:55.746Z,43.40
2018-06-05T04:06:24.833Z,39.03
2018-06-05T04:08:53.929Z,41.23
2018-06-05T04:11:23.025Z,43.73
2018-06-05T04:13:52.141Z,43.83
2018-06-05T04:16:21.245Z,49.70
2018-06-05T04:18:50.345Z,45.77
2018-06-05T04:21:19.448Z,44.03
2018-06-05T04:23:48.594Z,46.70
2018-06-05T04:26:17.777Z,44.77
2018-06-05T04:28:46.882Z,44.77
2018-06-05T04:31:15.986Z,40.90
2018-06-05T04:33:45.085Z,41.73
2018-06-05T04:36:14.233Z,44.83
2018-06-05T04:38:43.293Z,46.23
2018-06-05T04:41:12.402Z,41.47
2018-06-05T04:43:41.521Z,42.40
2018-06-05T04:46:10.605Z,39.40
2018-06-05T04:48:39.709Z,42.60
2018-06-05T04:51:08.825Z,44.80
2018-06-05T04:53:37.927Z,45.47
2018-06-05T04:56:07.138Z,41.03
2018-06-05T04:58:36.248Z,44.50
2018-06-05T05:01:05.394Z,44.27
2018-06-05T05:03:34.485Z,45.57
2018-06-05T05:06:03.606Z,47.03
2018-06-05T05:08:32.702Z,43.27
2018-06-05T05:11:01.830Z,42.73
2018-06-05T05:13:30.925Z,48.43
2018-06-05T05:16:00.026Z,45.70
2018-06-05T05:18:29.142Z,44.77
2018-06-05T05:20:58.249Z,44.43
2018-06-05T05:23:27.356Z,41.83
2018-06-05T05:25:56.466Z,43.33
2018-06-05T05:28:25.564Z,41.27
2018-06-05T05:30:54.750Z,42.30
2018-06-05T05:33:23.794Z,45.57
2018-06-05T05:35:53.016Z,43.27
2018-06-05T05:38:22.148Z,42.67
2018-06-05T05:40:51.297Z,48.73
2018-06-05T05:43:20.405Z,46.47
2018-06-05T05:45:49.517Z,46.60
2018-06-05T05:48:18.622Z,42.80
2018-06-05T05:50:47.736Z,36.83
2018-06-05T05:53:16.844Z,41.40
2018-06-05T05:55:45.967Z,44.30
2018-06-05T05:58:15.077Z,42.57
2018-06-05T06:00:44.227Z,49.30
2018-06-05T06:03:13.345Z,48.13
2018-06-05T06:05:42.447Z,46.30
2018-06-05T06:08:11.547Z,42.43
2018-06-05T06:10:40.637Z,43.57
2018-06-05T06:13:09.739Z,45.23
2018-06-05T06:15:38.842Z,44.07
2018-06-05T06:18:08.081Z,39.03
2018-06-05T06:20:37.163Z,40.60
2018-06-05T06:23:06.350Z,47.67
2018-06-05T06:25:35.454Z,44.17
2018-06-05T06:28:04.573Z,37.67
2018-06-05T06:30:33.677Z,44.77
2018-06-05T06:33:02.773Z,48.10
2018-06-05T06:35:31.877Z,45.50
2018-06-05T06:38:00.957Z,48.83
2018-06-05T06:40:30.073Z,44.60
2018-06-05T06:42:59.169Z,44.77
2018-06-05T06:45:28.269Z,38.80
2018-06-05T06:47:57.393Z,40.97
2018-06-05T06:50:26.709Z,48.50
2018-06-05T06:52:55.838Z,48.00
2018-06-05T06:55:24.907Z,39.87
2018-06-05T06:57:54.037Z,38.67
2018-06-05T07:00:23.142Z,48.27
2018-06-05T07:02:52.242Z,48.67
2018-06-05T07:05:21.349Z,49.17
2018-06-05T07:07:50.449Z,44.50
2018-06-05T07:10:19.550Z,38.10
2018-06-05T07:12:48.681Z,39.97
2018-06-05T07:15:17.777Z,46.50
2018-06-05T07:17:46.889Z,52.30
2018-06-05T07:20:15.974Z,48.20
2018-06-05T07:22:45.094Z,41.00
2018-06-05T07:25:14.225Z,44.17
2018-06-05T07:27:43.337Z,44.90
2018-06-05T07:30:12.457Z,43.03
2018-06-05T07:32:41.525Z,42.57
2018-06-05T07:35:10.637Z,48.20
2018-06-05T07:37:39.749Z,48.83
2018-06-05T07:40:08.959Z,48.10
2018-06-05T07:42:38.049Z,45.67
2018-06-05T07:45:07.149Z,45.90
2018-06-05T07:47:36.304Z,54.67
2018-06-05T07:50:05.441Z,46.57
2018-06-05T07:52:34.549Z,50.57
2018-06-05T07:55:03.705Z,49.10
2018-06-05T07:57:32.797Z,48.60
2018-06-05T08:00:02.090Z,55.43
2018-06-05T08:02:31.204Z,45.43
2018-06-05T08:05:00.329Z,44.27
2018-06-05T08:07:29.473Z,47.90
2018-06-05T08:09:58.577Z,46.17
2018-06-05T08:12:27.713Z,51.10
2018-06-05T08:14:56.809Z,46.43
2018-06-05T08:17:25.949Z,42.10
2018-06-05T08:19:55.081Z,44.57
2018-06-05T08:22:25.820Z,44.67
2018-06-05T08:24:54.931Z,42.50
2018-06-05T08:27:24.021Z,45.27
2018-06-05T08:29:53.213Z,47.93
2018-06-05T08:32:22.320Z,47.70
2018-06-05T08:34:51.424Z,47.87
2018-06-05T08:37:20.525Z,42.50
2018-06-05T08:39:49.664Z,47.83
2018-06-05T08:42:18.745Z,40.40
2018-06-05T08:44:47.857Z,44.93
2018-06-05T08:47:16.955Z,39.03
2018-06-05T08:49:46.049Z,38.57
2018-06-05T08:52:15.193Z,44.13
2018-06-05T08:54:44.285Z,37.20
2018-06-05T08:57:13.394Z,38.33
2018-06-05T08:59:42.485Z,38.10
2018-06-05T09:02:11.586Z,32.07
2018-06-05T09:04:40.685Z,34.40
2018-06-05T09:07:10.139Z,32.17
2018-06-05T09:09:39.240Z,32.23
2018-06-05T09:12:08.376Z,35.93
2018-06-05T09:14:37.534Z,31.53
2018-06-05T09:17:06.645Z,32.60
2018-06-05T09:19:35.745Z,31.47
2018-06-05T09:22:04.904Z,35.57
2018-06-05T09:24:34.114Z,30.97
2018-06-05T09:27:03.241Z,31.73
2018-06-05T09:29:32.381Z,31.20
2018-06-05T09:32:01.522Z,29.07
2018-06-05T09:34:30.616Z,28.40
2018-06-05T09:36:59.802Z,26.03
2018-06-05T09:39:28.900Z,29.93
2018-06-05T09:41:57.998Z,28.73
2018-06-05T09:44:27.082Z,29.10
2018-06-05T09:46:56.228Z,24.00
2018-06-05T09:49:25.313Z,25.90
2018-06-05T09:51:54.429Z,24.07
2018-06-05T09:54:23.521Z,24.87
2018-06-05T09:56:52.638Z,22.20
2018-06-05T09:59:21.745Z,24.20
2018-06-05T10:01:50.841Z,23.23
2018-06-05T10:04:19.943Z,22.53
2018-06-05T10:06:49.030Z,19.80
2018-06-05T10:09:18.154Z,21.03
2018-06-05T10:11:47.249Z,23.83
2018-06-05T10:14:16.341Z,26.50
2018-06-05T10:16:45.443Z,22.13
2018-06-05T10:19:14.552Z,23.37
2018-06-05T10:21:43.644Z,20.57
2018-06-05T10:24:12.781Z,20.00
2018-06-05T10:26:41.887Z,22.13
2018-06-05T10:29:11.002Z,21.07
2018-06-05T10:31:40.134Z,20.67
2018-06-05T10:34:09.239Z,23.33
2018-06-05T10:36:38.350Z,20.83
2018-06-05T10:39:08.169Z,21.53
2018-06-05T10:41:37.297Z,23.60
2018-06-05T10:44:06.388Z,21.50
2018-06-05T10:46:35.502Z,18.80
2018-06-05T10:49:04.601Z,19.57
2018-06-05T10:51:33.725Z,19.27
2018-06-05T10:54:02.826Z,18.57
2018-06-05T10:56:31.925Z,19.83
2018-06-05T10:59:01.067Z,19.40
2018-06-05T11:01:30.141Z,21.27
2018-06-05T11:03:59.226Z,21.30
2018-06-05T11:06:28.328Z,17.37
2018-06-05T11:08:57.429Z,19.63
2018-06-05T11:11:26.557Z,22.10
2018-06-05T11:13:55.678Z,20.50
2018-06-05T11:16:24.784Z,19.40
2018-06-05T11:18:53.949Z,22.33
2018-06-05T11:21:23.055Z,25.40
2018-06-05T11:23:52.149Z,22.90
2018-06-05T11:26:21.253Z,19.93
2018-06-05T11:28:50.357Z,19.50
2018-06-05T11:31:19.493Z,17.47
2018-06-05T11:33:48.584Z,20.47
2018-06-05T11:36:17.706Z,24.30
2018-06-05T11:38:46.813Z,21.63
2018-06-05T11:41:15.922Z,21.97
2018-06-05T11:43:45.021Z,30.00
2018-06-05T11:46:14.117Z,25.43
2018-06-05T11:48:43.248Z,27.90
2018-06-05T11:51:12.361Z,28.07
2018-06-05T11:53:41.461Z,24.93
2018-06-05T11:56:10.578Z,24.70
2018-06-05T11:58:39.705Z,25.33
2018-06-05T12:01:08.807Z,22.47
2018-06-05T12:03:37.889Z,20.03
2018-06-05T12:06:07.029Z,22.83
2018-06-05T12:08:36.153Z,21.67
2018-06-05T12:11:05.281Z,23.30
2018-06-05T12:13:34.365Z,24.03
2018-06-05T12:16:03.497Z,24.83
2018-06-05T12:18:32.594Z,18.63
2018-06-05T12:21:01.703Z,22.73
2018-06-05T12:23:30.791Z,23.57
2018-06-05T12:26:00.324Z,29.30
2018-06-05T12:28:29.430Z,30.37
2018-06-05T12:30:58.562Z,25.70
2018-06-05T12:33:27.741Z,25.50
2018-06-05T12:35:56.897Z,26.53
2018-06-05T12:38:25.994Z,28.73
2018-06-05T12:40:55.089Z,26.97
2018-06-05T12:43:24.193Z,24.70
2018-06-05T12:45:53.272Z,24.90
2018-06-05T12:48:22.476Z,27.67
2018-06-05T12:50:51.629Z,23.57
2018-06-05T12:53:20.799Z,25.00
2018-06-05T12:55:49.889Z,26.40
2018-06-05T12:58:19.001Z,26.17
2018-06-05T13:00:48.112Z,27.63
2018-06-05T13:03:17.189Z,34.03
2018-06-05T13:05:46.301Z,30.90
2018-06-05T13:08:15.485Z,26.27
2018-06-05T13:10:44.601Z,27.63
2018-06-05T13:13:13.697Z,28.00
2018-06-05T13:15:42.815Z,27.40
2018-06-05T13:18:11.933Z,28.70
2018-06-05T13:20:41.037Z,29.27
2018-06-05T13:23:10.213Z,30.27
2018-06-05T13:25:39.257Z,26.37
2018-06-05T13:28:08.417Z,31.17
2018-06-05T13:30:37.581Z,26.47
2018-06-05T13:33:06.710Z,30.60
2018-06-05T13:35:35.837Z,30.93
2018-06-05T13:38:04.949Z,27.93
2018-06-05T13:40:34.053Z,34.73
2018-06-05T13:43:03.160Z,31.60
2018-06-05T13:45:32.260Z,28.47
2018-06-05T13:48:01.340Z,31.23
2018-06-05T13:50:30.465Z,27.30
2018-06-05T13:52:59.571Z,29.20
2018-06-05T13:55:28.681Z,29.17
2018-06-05T13:57:57.764Z,30.67
2018-06-05T14:00:26.885Z,32.97
2018-06-05T14:02:55.988Z,29.90
2018-06-05T14:05:25.078Z,31.90
2018-06-05T14:07:54.197Z,33.60
2018-06-05T14:10:23.286Z,31.53
2018-06-05T14:12:52.389Z,30.80
2018-06-05T14:15:21.501Z,31.97
2018-06-05T14:17:50.689Z,31.47
2018-06-05T14:20:19.800Z,29.07
2018-06-05T14:22:48.909Z,34.00
2018-06-05T14:25:18.017Z,28.90
2018-06-05T14:27:47.157Z,30.57
2018-06-05T14:30:16.275Z,31.63
2018-06-05T14:32:45.364Z,31.70
2018-06-05T14:35:14.481Z,32.20
2018-06-05T14:37:43.600Z,33.47
2018-06-05T14:40:12.700Z,32.80
2018-06-05T14:42:41.781Z,33.17
2018-06-05T14:45:11.823Z,33.43
2018-06-05T14:47:40.864Z,31.03
2018-06-05T14:50:09.961Z,31.33
2018-06-05T14:52:39.085Z,31.50
2018-06-05T14:55:08.288Z,28.03
2018-06-05T14:57:37.422Z,32.17
2018-06-05T15:00:06.558Z,28.67
2018-06-05T15:02:35.665Z,32.20
2018-06-05T15:05:04.802Z,29.37
2018-06-05T15:07:33.921Z,30.30
2018-06-05T15:10:03.005Z,31.13
2018-06-05T15:12:32.101Z,31.93
2018-06-05T15:15:01.222Z,28.93
2018-06-05T15:17:30.327Z,31.47
2018-06-05T15:19:59.441Z,30.30
2018-06-05T15:22:28.554Z,33.40
2018-06-05T15:24:57.656Z,33.57
2018-06-05T15:27:27.813Z,30.20
2018-06-05T15:29:56.941Z,28.90
2018-06-05T15:32:26.033Z,29.13
2018-06-05T15:34:55.179Z,32.60
2018-06-05T15:37:24.313Z,28.37
2018-06-05T15:39:53.433Z,32.07
2018-06-05T15:42:22.573Z,24.07
2018-06-05T15:44:51.685Z,29.77
2018-06-05T15:47:20.793Z,28.20
2018-06-05T15:49:49.897Z,32.70
2018-06-05T15:52:19.045Z,30.00
2018-06-05T15:54:48.145Z,32.27
2018-06-05T15:57:17.525Z,29.70
2018-06-05T15:59:46.673Z,27.67
2018-06-05T16:02:15.787Z,25.50
2018-06-05T16:04:45.011Z,30.00
2018-06-05T16:07:14.084Z,26.27
2018-06-05T16:09:43.197Z,29.43
2018-06-05T16:12:12.350Z,27.50
2018-06-05T16:14:41.405Z,30.20
2018-06-05T16:17:10.506Z,27.63
2018-06-05T16:19:39.601Z,28.07
2018-06-05T16:22:08.697Z,35.13
2018-06-05T16:24:37.792Z,27.70
2018-06-05T16:27:07.029Z,27.87
2018-06-05T16:29:36.229Z,29.70
2018-06-05T16:32:05.330Z,26.43
2018-06-05T16:34:34.461Z,30.60
2018-06-05T16:37:03.596Z,26.03
2018-06-05T16:39:32.697Z,30.90
2018-06-05T16:42:01.825Z,27.47
2018-06-05T16:44:30.945Z,31.97
2018-06-05T16:47:00.066Z,31.77
2018-06-05T16:49:29.161Z,29.50
2018-06-05T16:51:58.257Z,27.57
2018-06-05T16:54:27.362Z,33.70
2018-06-05T16:56:56.456Z,29.40
2018-06-05T16:59:25.572Z,31.10
2018-06-05T17:01:54.671Z,34.17
2018-06-05T17:04:23.794Z,36.43
2018-06-05T17:06:52.861Z,37.47
2018-06-05T17:09:21.998Z,30.67
2018-06-05T17:11:51.128Z,32.60
2018-06-05T17:14:20.220Z,28.27
2018-06-05T17:16:49.317Z,33.13
2018-06-05T17:19:18.409Z,32.43
2018-06-05T17:21:47.518Z,31.57
2018-06-05T17:27:13.984Z,34.90
2018-06-05T17:29:43.046Z,37.53
2018-06-05T17:32:12.249Z,34.97
2018-06-05T17:34:41.381Z,28.50
2018-06-05T17:37:10.522Z,32.70
2018-06-05T17:39:39.633Z,36.37
2018-06-05T17:42:08.738Z,32.20
2018-06-05T17:44:37.841Z,33.13
2018-06-05T17:47:06.965Z,33.57
2018-06-05T17:49:36.077Z,38.27
2018-06-05T17:52:05.239Z,33.80
2018-06-05T17:54:34.354Z,38.33
2018-06-05T18:00:00.561Z,36.23
2018-06-05T18:02:30.215Z,34.13
2018-06-05T18:04:59.333Z,32.87
2018-06-05T18:07:28.572Z,34.47
2018-06-05T18:09:57.712Z,31.77
2018-06-05T18:12:26.893Z,31.53
2018-06-05T18:14:56.386Z,31.40
2018-06-05T18:17:25.505Z,33.10
2018-06-05T18:19:54.613Z,31.73
2018-06-05T18:22:23.722Z,36.83
2018-06-05T18:24:52.829Z,33.50
2018-06-05T18:27:21.946Z,30.67
2018-06-05T18:29:51.046Z,32.37
2018-06-05T18:32:20.162Z,34.07
2018-06-05T18:34:49.274Z,28.03
2018-06-05T18:37:18.484Z,30.67
2018-06-05T18:39:47.536Z,27.63
2018-06-05T18:42:16.682Z,33.37
2018-06-05T18:44:45.789Z,33.00
2018-06-05T18:47:14.921Z,29.07
2018-06-05T18:49:44.132Z,26.70
2018-06-05T18:52:13.681Z,31.23
2018-06-05T18:54:42.905Z,24.17
2018-06-05T18:57:12.035Z,27.97
2018-06-05T18:59:41.150Z,30.53
2018-06-05T19:02:10.294Z,23.23
2018-06-05T19:04:39.414Z,26.10
2018-06-05T19:07:08.671Z,26.57
2018-06-05T19:09:37.742Z,25.60
2018-06-05T19:12:06.950Z,24.13
2018-06-05T19:14:36.088Z,28.93
2018-06-05T19:17:05.335Z,27.03
2018-06-05T19:19:34.454Z,28.63
2018-06-05T19:22:03.666Z,30.73
2018-06-05T19:24:38.441Z,32.60
2018-06-05T19:27:07.628Z,32.67
2018-06-05T19:29:36.876Z,33.20
2018-06-05T19:32:05.894Z,29.70
2018-06-05T19:34:35.020Z,37.30
2018-06-05T19:37:04.186Z,33.53
2018-06-05T19:39:33.336Z,34.43
2018-06-05T19:42:02.526Z,35.00
2018-06-05T19:44:31.601Z,36.83
2018-06-05T19:47:00.734Z,32.97
2018-06-05T19:49:29.877Z,33.60
2018-06-05T19:51:59.052Z,34.63
2018-06-05T19:54:28.146Z,35.67
2018-06-05T19:56:57.290Z,35.57
2018-06-05T19:59:26.413Z,37.67
2018-06-05T20:01:55.516Z,40.87
2018-06-05T20:04:24.657Z,34.70
2018-06-05T20:06:53.902Z,39.33
2018-06-05T20:09:23.933Z,37.53
2018-06-05T20:11:53.038Z,36.57
2018-06-05T20:14:22.258Z,40.03
2018-06-05T20:16:51.380Z,40.97
2018-06-05T20:19:20.490Z,38.47
2018-06-05T20:21:49.681Z,36.13
2018-06-05T20:24:18.925Z,37.53
2018-06-05T20:26:48.039Z,41.80
2018-06-05T20:29:18.362Z,36.20
2018-06-05T20:31:48.390Z,34.33
2018-06-05T20:34:17.526Z,32.63
2018-06-05T20:36:46.674Z,39.40
2018-06-05T20:39:15.782Z,39.67
2018-06-05T20:41:44.916Z,39.10
2018-06-05T20:44:14.127Z,45.37
2018-06-05T20:46:43.245Z,32.50
2018-06-05T20:49:12.370Z,45.47
2018-06-05T20:51:41.532Z,39.73
2018-06-05T20:54:10.688Z,39.77
2018-06-05T20:56:39.797Z,34.00
2018-06-05T20:59:08.930Z,33.47
2018-06-05T21:01:42.699Z,29.27
2018-06-05T21:04:11.809Z,28.67
2018-06-05T21:06:40.934Z,27.07
2018-06-05T21:09:10.078Z,36.20
2018-06-05T21:11:39.204Z,39.97
2018-06-05T21:14:08.330Z,29.67
2018-06-05T21:16:37.468Z,31.53
2018-06-05T21:19:06.586Z,33.03
2018-06-05T21:21:35.697Z,29.17
2018-06-05T21:24:04.909Z,30.93
2018-06-05T21:26:33.985Z,35.00
2018-06-05T21:29:03.102Z,42.27
2018-06-05T21:31:32.233Z,39.30
2018-06-05T21:34:01.389Z,39.97
2018-06-05T21:36:30.498Z,29.47
2018-06-05T21:39:15.949Z,29.67
2018-06-05T21:41:45.073Z,27.17
2018-06-05T21:44:14.186Z,36.53
2018-06-05T21:46:43.301Z,29.27
2018-06-05T21:49:12.753Z,29.20
2018-06-05T21:51:41.891Z,30.33
2018-06-05T21:54:11.049Z,33.70
2018-06-05T21:56:40.166Z,31.13
2018-06-05T21:59:09.296Z,30.33
2018-06-05T22:01:38.410Z,31.53
2018-06-05T22:04:07.585Z,28.53
2018-06-05T22:06:36.705Z,32.97
2018-06-05T22:09:08.174Z,26.97
2018-06-05T22:11:37.294Z,31.83
2018-06-05T22:14:06.529Z,26.20
2018-06-05T22:16:35.653Z,31.60
2018-06-05T22:19:04.745Z,33.20
2018-06-05T22:21:33.878Z,37.93
2018-06-05T22:24:02.990Z,37.07
2018-06-05T22:26:32.101Z,34.97
2018-06-05T22:29:01.222Z,33.67
2018-06-05T22:31:30.337Z,30.33
2018-06-05T22:33:59.473Z,31.37
2018-06-05T22:36:28.618Z,34.50
2018-06-05T22:38:57.770Z,37.80
2018-06-05T22:41:26.929Z,30.43
2018-06-05T22:43:56.049Z,30.97
2018-06-05T22:46:25.189Z,38.77
2018-06-05T22:48:54.306Z,31.60
2018-06-05T22:51:23.454Z,29.13
2018-06-05T22:53:52.581Z,36.77
2018-06-05T22:56:21.701Z,33.37
2018-06-05T22:58:50.877Z,34.57
2018-06-05T23:01:20.590Z,39.73
2018-06-05T23:03:49.725Z,43.93
2018-06-05T23:06:18.845Z,40.90
2018-06-05T23:08:47.988Z,33.03
2018-06-05T23:11:17.106Z,35.30
2018-06-05T23:13:46.258Z,39.37
2018-06-05T23:16:15.378Z,29.03
2018-06-05T23:18:44.506Z,39.43
2018-06-05T23:21:13.651Z,41.37
2018-06-05T23:23:42.785Z,37.77
2018-06-05T23:26:11.917Z,32.60
2018-06-05T23:28:41.078Z,34.60
2018-06-05T23:31:10.226Z,38.63
2018-06-05T23:33:39.370Z,35.00
2018-06-05T23:36:08.503Z,37.33
2018-06-05T23:38:37.635Z,36.20
2018-06-05T23:41:06.824Z,39.83
2018-06-05T23:43:35.925Z,35.43
2018-06-05T23:46:05.053Z,36.83
2018-06-05T23:48:34.165Z,30.37
2018-06-05T23:51:03.343Z,35.77
2018-06-05T23:53:32.453Z,36.23
2018-06-05T23:56:01.590Z,34.67
2018-06-05T23:58:30.706Z,46.90
